createdAt,value
2022-11-10T00:01:26.720Z,9.30
2022-11-10T00:04:46.388Z,9.30
2022-11-10T00:08:08.568Z,9.30
2022-11-10T00:11:27.812Z,9.30
2022-11-10T00:15:05.162Z,9.30
2022-11-10T00:18:24.187Z,9.40
2022-11-10T00:21:43.505Z,9.40
2022-11-10T00:25:03.379Z,9.40
2022-11-10T00:28:22.618Z,9.30
2022-11-10T00:31:41.818Z,9.30
2022-11-10T00:35:01.240Z,9.40
2022-11-10T00:38:20.559Z,9.50
2022-11-10T00:41:39.871Z,9.60
2022-11-10T00:44:59.077Z,9.50
2022-11-10T00:48:18.231Z,9.60
2022-11-10T00:51:37.871Z,9.60
2022-11-10T00:54:57.381Z,9.60
2022-11-10T00:58:16.955Z,9.70
2022-11-10T01:01:36.297Z,9.70
2022-11-10T01:04:55.391Z,9.70
2022-11-10T01:08:14.518Z,9.70
2022-11-10T01:11:33.547Z,9.70
2022-11-10T01:14:52.770Z,9.70
2022-11-10T01:18:12.303Z,9.70
2022-11-10T01:21:31.947Z,9.70
2022-11-10T01:24:51.106Z,9.70
2022-11-10T01:28:10.779Z,9.70
2022-11-10T01:31:29.893Z,9.70
2022-11-10T01:34:49.673Z,9.80
2022-11-10T01:38:08.890Z,9.70
2022-11-10T01:41:28.045Z,9.60
2022-11-10T01:45:24.686Z,9.70
2022-11-10T01:48:56.992Z,9.60
2022-11-10T01:52:16.605Z,9.60
2022-11-10T01:55:41.862Z,9.60
2022-11-10T01:59:13.832Z,9.70
2022-11-10T02:02:50.886Z,9.70
2022-11-10T02:06:11.201Z,9.70
2022-11-10T02:09:30.661Z,9.70
2022-11-10T02:12:51.145Z,9.70
2022-11-10T02:16:12.055Z,9.70
2022-11-10T02:19:40.274Z,9.70
2022-11-10T02:23:00.110Z,9.80
2022-11-10T02:26:29.974Z,9.80
2022-11-10T02:29:49.344Z,9.80
2022-11-10T02:33:08.813Z,9.80
2022-11-10T02:36:27.940Z,9.70
2022-11-10T02:39:46.895Z,9.80
2022-11-10T02:43:11.972Z,9.80
2022-11-10T02:46:31.310Z,9.70
2022-11-10T02:49:50.564Z,9.70
2022-11-10T02:53:09.824Z,9.70
2022-11-10T02:56:29.226Z,9.70
2022-11-10T02:59:48.306Z,9.70
2022-11-10T03:03:07.778Z,9.70
2022-11-10T03:06:27.355Z,9.70
2022-11-10T03:09:46.399Z,9.70
2022-11-10T03:13:05.602Z,9.70
2022-11-10T03:16:24.767Z,9.60
2022-11-10T03:19:44.356Z,9.60
2022-11-10T03:23:05.599Z,9.50
2022-11-10T03:26:24.874Z,9.50
2022-11-10T03:29:43.977Z,9.60
2022-11-10T03:33:04.012Z,9.50
2022-11-10T03:36:23.637Z,9.50
2022-11-10T03:39:42.638Z,9.40
2022-11-10T03:43:01.567Z,9.40
2022-11-10T03:46:20.923Z,9.30
2022-11-10T03:49:40.796Z,9.30
2022-11-10T03:53:00.320Z,9.30
2022-11-10T03:56:19.582Z,9.20
2022-11-10T03:59:38.759Z,9.20
2022-11-10T04:02:57.977Z,9.20
2022-11-10T04:06:36.038Z,9.20
2022-11-10T04:09:55.781Z,9.10
2022-11-10T04:13:33.228Z,9.10
2022-11-10T04:16:52.494Z,9.00
2022-11-10T04:20:12.614Z,8.90
2022-11-10T04:23:36.458Z,8.80
2022-11-10T04:26:55.938Z,8.80
2022-11-10T04:30:15.289Z,8.60
2022-11-10T04:33:37.144Z,8.60
2022-11-10T04:36:56.392Z,8.60
2022-11-10T04:40:15.800Z,8.70
2022-11-10T04:43:35.916Z,8.70
2022-11-10T04:46:55.280Z,8.60
2022-11-10T04:50:14.595Z,8.40
2022-11-10T04:53:34.552Z,8.30
2022-11-10T04:56:53.968Z,8.40
2022-11-10T05:00:13.980Z,8.40
2022-11-10T05:03:33.384Z,8.30
2022-11-10T05:06:54.114Z,8.20
2022-11-10T05:10:15.283Z,8.20
2022-11-10T05:13:35.352Z,7.90
2022-11-10T05:16:54.916Z,7.80
2022-11-10T05:20:14.232Z,7.80
2022-11-10T05:23:39.182Z,7.90
2022-11-10T05:26:59.750Z,8.00
2022-11-10T05:30:19.030Z,8.30
2022-11-10T05:33:39.925Z,8.50
2022-11-10T05:36:59.559Z,8.40
2022-11-10T05:40:19.242Z,8.60
2022-11-10T05:43:38.528Z,8.70
2022-11-10T05:46:57.597Z,8.60
2022-11-10T05:50:18.942Z,8.60
2022-11-10T05:53:38.362Z,8.60
2022-11-10T05:56:57.532Z,8.60
2022-11-10T06:00:21.923Z,8.40
2022-11-10T06:03:41.388Z,8.40
2022-11-10T06:07:01.418Z,8.50
2022-11-10T06:10:21.476Z,8.40
2022-11-10T06:13:40.711Z,8.20
2022-11-10T06:17:00.027Z,8.10
2022-11-10T06:20:20.119Z,8.20
2022-11-10T06:23:39.287Z,8.30
2022-11-10T06:26:58.431Z,8.10
2022-11-10T06:30:17.792Z,7.80
2022-11-10T06:33:36.929Z,7.90
2022-11-10T06:36:56.285Z,8.00
2022-11-10T06:40:15.775Z,7.80
2022-11-10T06:43:35.397Z,7.50
2022-11-10T06:46:54.532Z,7.40
2022-11-10T06:50:14.483Z,7.20
2022-11-10T06:53:34.575Z,7.20
2022-11-10T06:56:54.642Z,7.40
2022-11-10T07:00:15.326Z,7.40
2022-11-10T07:03:38.829Z,7.70
2022-11-10T07:07:03.726Z,7.90
2022-11-10T07:10:23.530Z,7.90
2022-11-10T07:13:43.314Z,8.00
2022-11-10T07:17:02.886Z,7.80
2022-11-10T07:20:22.708Z,8.00
2022-11-10T07:23:42.367Z,8.10
2022-11-10T07:27:01.637Z,8.00
2022-11-10T07:30:20.774Z,8.00
2022-11-10T07:33:40.021Z,8.20
2022-11-10T07:36:59.425Z,8.40
2022-11-10T07:40:18.730Z,8.50
2022-11-10T07:43:37.714Z,9.00
2022-11-10T07:46:56.989Z,9.60
2022-11-10T07:50:17.198Z,9.70
2022-11-10T07:53:36.935Z,9.40
2022-11-10T07:56:56.436Z,10.30
2022-11-10T08:00:16.844Z,11.50
2022-11-10T08:03:36.336Z,12.40
2022-11-10T08:06:55.916Z,14.40
2022-11-10T08:10:15.893Z,17.40
2022-11-10T08:13:35.420Z,18.60
2022-11-10T08:16:54.509Z,18.80
2022-11-10T08:20:14.133Z,18.50
2022-11-10T08:23:33.663Z,16.30
2022-11-10T08:26:53.051Z,15.10
2022-11-10T08:30:12.872Z,13.00
2022-11-10T08:33:32.073Z,11.80
2022-11-10T08:36:54.779Z,11.00
2022-11-10T08:40:15.587Z,10.70
2022-11-10T08:43:34.757Z,11.10
2022-11-10T08:46:53.788Z,11.20
2022-11-10T08:50:13.053Z,11.20
2022-11-10T08:53:32.279Z,11.00
2022-11-10T08:56:51.119Z,11.00
2022-11-10T09:00:11.214Z,10.80
2022-11-10T09:03:30.759Z,10.60
2022-11-10T09:06:50.030Z,10.30
2022-11-10T09:10:10.483Z,10.30
2022-11-10T09:13:31.366Z,10.30
2022-11-10T09:16:51.343Z,10.40
2022-11-10T09:20:12.716Z,10.60
2022-11-10T09:23:32.407Z,10.60
2022-11-10T09:26:51.545Z,10.40
2022-11-10T09:30:16.357Z,10.50
2022-11-10T09:33:36.976Z,10.50
2022-11-10T09:36:56.411Z,10.40
2022-11-10T09:40:25.461Z,10.60
2022-11-10T09:44:36.318Z,10.40
2022-11-10T09:48:15.754Z,10.50
2022-11-10T09:51:48.126Z,10.60
2022-11-10T09:56:00.821Z,10.50
2022-11-10T09:59:27.750Z,10.40
2022-11-10T10:02:59.594Z,10.20
2022-11-10T10:06:22.056Z,10.40
2022-11-10T10:10:04.786Z,10.10
2022-11-10T10:14:35.454Z,10.30
2022-11-10T10:18:19.187Z,10.70
2022-11-10T10:22:00.054Z,10.80
2022-11-10T10:25:28.541Z,11.10
2022-11-10T10:28:51.049Z,11.60
2022-11-10T10:32:14.409Z,11.80
2022-11-10T10:35:39.070Z,12.20
2022-11-10T10:39:10.780Z,12.70
2022-11-10T10:42:36.270Z,12.60
2022-11-10T10:46:20.434Z,13.00
2022-11-10T10:49:40.341Z,13.70
2022-11-10T10:53:19.059Z,15.30
2022-11-10T10:56:38.529Z,15.90
2022-11-10T11:00:21.141Z,15.00
2022-11-10T11:03:50.502Z,14.70
2022-11-10T11:07:26.088Z,14.40
2022-11-10T11:10:46.770Z,13.60
2022-11-10T11:14:28.152Z,13.10
2022-11-10T11:18:03.686Z,13.50
2022-11-10T11:21:37.466Z,14.50
2022-11-10T11:25:11.864Z,17.30
2022-11-10T11:28:58.795Z,20.30
2022-11-10T11:32:49.451Z,21.40
2022-11-10T11:36:25.792Z,23.20
2022-11-10T11:40:33.634Z,23.70
2022-11-10T11:44:07.237Z,22.50
2022-11-10T11:47:57.112Z,17.90
2022-11-10T11:51:31.659Z,16.10
2022-11-10T11:55:45.275Z,15.20
2022-11-10T11:59:31.700Z,14.50
2022-11-10T12:03:24.118Z,14.00
2022-11-10T12:07:05.136Z,14.80
2022-11-10T12:10:43.428Z,15.60
2022-11-10T12:14:20.355Z,15.30
2022-11-10T12:18:00.680Z,15.60
2022-11-10T12:21:36.597Z,15.50
2022-11-10T12:25:31.193Z,14.70
2022-11-10T12:28:58.453Z,14.20
2022-11-10T12:32:42.056Z,13.80
2022-11-10T12:36:07.574Z,13.30
2022-11-10T12:39:46.372Z,13.40
2022-11-10T12:43:18.066Z,13.60
2022-11-10T12:46:37.428Z,13.40
2022-11-10T12:50:38.349Z,13.50
2022-11-10T12:53:57.781Z,13.40
2022-11-10T12:57:24.281Z,13.40
2022-11-10T13:00:56.642Z,13.80
2022-11-10T13:04:20.043Z,13.90
2022-11-10T13:07:47.455Z,13.90
2022-11-10T13:11:23.578Z,13.90
2022-11-10T13:14:43.823Z,13.80
2022-11-10T13:18:02.920Z,13.70
2022-11-10T13:21:51.387Z,13.60
2022-11-10T13:25:36.238Z,13.90
2022-11-10T13:29:01.734Z,14.00
2022-11-10T13:32:33.048Z,14.10
2022-11-10T13:35:58.416Z,14.20
2022-11-10T13:39:20.838Z,14.00
2022-11-10T13:42:46.024Z,14.00
2022-11-10T13:46:07.285Z,13.40
2022-11-10T13:49:54.431Z,13.50
2022-11-10T13:53:32.338Z,13.60
2022-11-10T13:57:11.795Z,13.40
2022-11-10T14:00:34.588Z,13.70
2022-11-10T14:04:02.898Z,14.00
2022-11-10T14:07:24.101Z,14.60
2022-11-10T14:11:00.035Z,15.50
2022-11-10T14:14:27.296Z,16.70
2022-11-10T14:17:55.853Z,17.80
2022-11-10T14:21:47.691Z,18.30
2022-11-10T14:25:36.449Z,18.10
2022-11-10T14:28:55.795Z,18.80
2022-11-10T14:32:25.490Z,18.60
2022-11-10T14:35:58.365Z,18.90
2022-11-10T14:39:18.007Z,19.20
2022-11-10T14:42:39.491Z,18.70
2022-11-10T14:46:00.032Z,17.40
2022-11-10T14:49:26.851Z,18.10
2022-11-10T14:52:51.393Z,18.70
2022-11-10T14:56:37.441Z,18.30
2022-11-10T14:59:57.469Z,18.10
2022-11-10T15:03:36.624Z,17.80
2022-11-10T15:06:59.097Z,16.80
2022-11-10T15:10:28.126Z,16.50
2022-11-10T15:13:47.436Z,16.50
2022-11-10T15:17:15.369Z,16.70
2022-11-10T15:20:41.208Z,16.50
2022-11-10T15:24:06.315Z,16.60
2022-11-10T15:27:32.013Z,16.30
2022-11-10T15:31:01.497Z,14.60
2022-11-10T15:34:43.695Z,13.30
2022-11-10T15:38:18.131Z,12.60
2022-11-10T15:41:48.799Z,12.10
2022-11-10T15:45:08.312Z,11.70
2022-11-10T15:48:44.380Z,11.30
2022-11-10T15:52:18.886Z,11.00
2022-11-10T15:55:38.036Z,10.80
2022-11-10T15:59:02.128Z,10.50
2022-11-10T16:02:26.282Z,10.10
2022-11-10T16:05:46.442Z,9.90
2022-11-10T16:09:07.517Z,9.90
2022-11-10T16:12:28.524Z,9.90
2022-11-10T16:15:48.176Z,9.60
2022-11-10T16:19:11.133Z,9.50
2022-11-10T16:22:30.634Z,9.40
2022-11-10T16:25:54.705Z,9.10
2022-11-10T16:29:18.049Z,8.90
2022-11-10T16:32:37.355Z,8.70
2022-11-10T16:35:57.051Z,8.70
2022-11-10T16:39:17.656Z,8.50
2022-11-10T16:42:37.220Z,8.30
2022-11-10T16:46:02.237Z,8.20
2022-11-10T16:49:33.124Z,8.10
2022-11-10T16:52:53.221Z,8.10
2022-11-10T16:56:17.211Z,8.10
2022-11-10T16:59:36.380Z,8.00
2022-11-10T17:03:16.366Z,8.00
2022-11-10T17:06:36.671Z,8.00
2022-11-10T17:09:59.058Z,7.90
2022-11-10T17:13:19.169Z,8.20
2022-11-10T17:16:43.590Z,8.10
2022-11-10T17:20:04.410Z,8.00
2022-11-10T17:23:26.774Z,7.80
2022-11-10T17:26:47.636Z,7.80
2022-11-10T17:30:10.245Z,7.80
2022-11-10T17:33:29.712Z,7.70
2022-11-10T17:36:52.900Z,7.70
2022-11-10T17:40:31.396Z,7.80
2022-11-10T17:43:50.654Z,8.00
2022-11-10T17:47:10.336Z,8.00
2022-11-10T17:50:31.726Z,7.80
2022-11-10T17:53:52.111Z,7.60
2022-11-10T17:57:11.398Z,7.40
2022-11-10T18:00:30.492Z,7.50
2022-11-10T18:03:50.989Z,7.60
2022-11-10T18:07:10.535Z,7.40
2022-11-10T18:10:30.344Z,7.40
2022-11-10T18:13:49.861Z,7.30
2022-11-10T18:17:09.429Z,7.10
2022-11-10T18:20:28.729Z,7.20
2022-11-10T18:23:47.842Z,7.10
2022-11-10T18:27:06.848Z,7.00
2022-11-10T18:30:29.761Z,6.90
2022-11-10T18:33:54.760Z,7.10
2022-11-10T18:37:14.202Z,7.10
2022-11-10T18:40:34.231Z,7.20
2022-11-10T18:43:53.483Z,7.30
2022-11-10T18:47:13.779Z,7.60
2022-11-10T18:50:33.397Z,7.60
2022-11-10T18:53:54.478Z,7.10
2022-11-10T18:57:16.546Z,6.80
2022-11-10T19:00:35.948Z,6.80
2022-11-10T19:03:55.879Z,6.80
2022-11-10T19:07:15.198Z,6.70
2022-11-10T19:10:35.593Z,6.70
2022-11-10T19:13:56.829Z,6.70
2022-11-10T19:17:17.216Z,6.70
2022-11-10T19:20:38.819Z,7.00
2022-11-10T19:23:58.938Z,7.00
2022-11-10T19:27:18.214Z,6.90
2022-11-10T19:30:38.576Z,6.70
2022-11-10T19:33:58.495Z,6.60
2022-11-10T19:37:17.638Z,6.70
2022-11-10T19:40:39.151Z,6.70
2022-11-10T19:44:00.159Z,6.70
2022-11-10T19:47:19.203Z,7.00
2022-11-10T19:50:38.282Z,6.90
2022-11-10T19:54:03.159Z,6.70
2022-11-10T19:57:23.313Z,6.60
2022-11-10T20:00:48.145Z,6.70
2022-11-10T20:04:08.762Z,7.00
2022-11-10T20:07:46.619Z,7.00
2022-11-10T20:11:13.862Z,7.20
2022-11-10T20:14:33.145Z,7.10
2022-11-10T20:17:52.315Z,7.10
2022-11-10T20:21:15.923Z,7.10
2022-11-10T20:24:36.232Z,6.90
2022-11-10T20:27:55.654Z,6.80
2022-11-10T20:31:24.494Z,6.80
2022-11-10T20:34:43.741Z,6.80
2022-11-10T20:38:02.961Z,6.80
2022-11-10T20:41:26.608Z,6.80
2022-11-10T20:44:45.905Z,6.80
2022-11-10T20:48:05.523Z,6.60
2022-11-10T20:51:24.945Z,6.50
2022-11-10T20:54:44.925Z,6.70
2022-11-10T20:58:04.416Z,6.80
2022-11-10T21:01:24.887Z,6.90
2022-11-10T21:04:44.522Z,7.10
2022-11-10T21:08:03.867Z,7.30
2022-11-10T21:11:42.666Z,7.60
2022-11-10T21:15:01.713Z,7.70
2022-11-10T21:18:21.944Z,7.90
2022-11-10T21:21:41.507Z,8.00
2022-11-10T21:25:00.797Z,8.10
2022-11-10T21:28:20.058Z,8.20
2022-11-10T21:31:39.545Z,8.40
2022-11-10T21:34:58.920Z,8.50
2022-11-10T21:38:17.922Z,8.60
2022-11-10T21:41:37.066Z,8.50
2022-11-10T21:44:56.396Z,8.60
2022-11-10T21:48:15.702Z,8.50
2022-11-10T21:51:35.014Z,8.50
2022-11-10T21:54:54.157Z,8.50
2022-11-10T21:58:13.375Z,8.50
2022-11-10T22:01:32.776Z,8.40
2022-11-10T22:04:52.477Z,8.20
2022-11-10T22:08:11.693Z,8.10
2022-11-10T22:11:49.139Z,7.90
2022-11-10T22:15:33.086Z,7.80
2022-11-10T22:18:52.196Z,7.60
2022-11-10T22:22:14.422Z,7.30
2022-11-10T22:25:34.070Z,7.40
2022-11-10T22:28:53.615Z,7.50
2022-11-10T22:32:12.566Z,7.50
2022-11-10T22:35:43.521Z,7.50
2022-11-10T22:39:04.633Z,7.30
2022-11-10T22:42:42.909Z,6.90
2022-11-10T22:46:02.746Z,6.90
2022-11-10T22:49:24.449Z,7.00
2022-11-10T22:52:43.932Z,7.20
2022-11-10T22:56:03.128Z,7.20
2022-11-10T22:59:22.845Z,7.20
2022-11-10T23:02:42.086Z,7.30
2022-11-10T23:06:02.440Z,7.10
2022-11-10T23:09:21.518Z,7.10
2022-11-10T23:12:40.626Z,7.00
2022-11-10T23:16:07.170Z,6.40
2022-11-10T23:19:26.702Z,6.10
2022-11-10T23:22:45.974Z,6.10
2022-11-10T23:26:13.556Z,6.00
2022-11-10T23:29:32.949Z,6.00
2022-11-10T23:32:55.317Z,6.10
2022-11-10T23:36:18.501Z,6.10
2022-11-10T23:39:37.950Z,6.00
2022-11-10T23:42:57.123Z,6.00
2022-11-10T23:46:16.486Z,6.00
2022-11-10T23:49:35.587Z,6.30
2022-11-10T23:52:54.556Z,6.70
2022-11-10T23:56:14.583Z,7.00
2022-11-10T23:59:34.045Z,6.80
